createdAt,value
2023-03-10T00:00:34.428Z,99107.81
2023-03-10T00:03:58.550Z,99097.91
2023-03-10T00:07:01.510Z,99094.37
2023-03-10T00:10:04.638Z,99092.44
2023-03-10T00:13:07.511Z,99096.88
2023-03-10T00:16:18.104Z,99089.22
2023-03-10T00:19:21.027Z,99091.44
2023-03-10T00:22:23.847Z,99087.91
2023-03-10T00:25:26.848Z,99091.53
2023-03-10T00:28:29.908Z,99094.13
2023-03-10T00:31:34.796Z,99094.75
2023-03-10T00:34:37.685Z,99093.59
2023-03-10T00:37:40.522Z,99091.75
2023-03-10T00:40:43.426Z,99086.56
2023-03-10T00:43:46.757Z,99082.19
2023-03-10T00:46:49.724Z,99082.94
2023-03-10T00:49:52.681Z,99077.59
2023-03-10T00:52:55.552Z,99074.94
2023-03-10T00:56:12.225Z,99064.56
2023-03-10T00:59:15.345Z,99063.63
2023-03-10T01:02:21.119Z,99052.31
2023-03-10T01:05:24.375Z,99054.06
2023-03-10T01:08:27.269Z,99049.94
2023-03-10T01:11:31.230Z,99054.09
2023-03-10T01:14:34.074Z,99052.31
2023-03-10T01:17:37.101Z,99048.75
2023-03-10T01:20:41.886Z,99047.09
2023-03-10T01:23:44.875Z,99054.03
2023-03-10T01:26:47.749Z,99036.78
2023-03-10T01:29:50.571Z,99041.84
2023-03-10T01:32:53.456Z,99041.81
2023-03-10T01:35:56.493Z,99041.06
2023-03-10T01:39:00.378Z,99029.75
2023-03-10T01:42:03.375Z,99028.00
2023-03-10T01:45:10.248Z,99013.19
2023-03-10T01:48:17.006Z,99021.78
2023-03-10T01:51:20.609Z,99023.47
2023-03-10T01:54:29.075Z,99023.38
2023-03-10T01:57:37.670Z,99014.62
2023-03-10T02:00:43.656Z,99009.41
2023-03-10T02:03:53.626Z,99011.06
2023-03-10T02:06:57.788Z,99017.06
2023-03-10T02:10:02.333Z,99002.19
2023-03-10T02:13:04.999Z,99001.28
2023-03-10T02:16:08.361Z,98993.41
2023-03-10T02:19:29.161Z,98985.53
2023-03-10T02:22:33.007Z,98980.25
2023-03-10T02:25:48.196Z,98975.03
2023-03-10T02:28:55.127Z,98984.44
2023-03-10T02:31:58.826Z,98977.47
2023-03-10T02:35:02.720Z,98975.69
2023-03-10T02:38:05.898Z,98976.53
2023-03-10T02:41:15.122Z,98971.31
2023-03-10T02:44:23.477Z,98965.16
2023-03-10T02:47:26.778Z,98961.69
2023-03-10T02:50:37.013Z,98959.97
2023-03-10T02:53:40.165Z,98956.47
2023-03-10T02:56:43.059Z,98951.22
2023-03-10T02:59:46.326Z,98958.06
2023-03-10T03:02:49.775Z,98953.69
2023-03-10T03:05:53.105Z,98958.03
2023-03-10T03:08:55.966Z,98957.94
2023-03-10T03:12:00.148Z,98951.91
2023-03-10T03:15:03.901Z,98955.31
2023-03-10T03:18:07.236Z,98936.22
2023-03-10T03:21:12.616Z,98930.97
2023-03-10T03:24:23.482Z,98929.25
2023-03-10T03:27:26.182Z,98919.72
2023-03-10T03:30:30.526Z,98917.09
2023-03-10T03:33:34.278Z,98910.09
2023-03-10T03:36:38.107Z,98900.47
2023-03-10T03:39:41.221Z,98903.22
2023-03-10T03:42:49.536Z,98905.69
2023-03-10T03:45:52.385Z,98899.66
2023-03-10T03:48:56.092Z,98890.91
2023-03-10T03:51:58.955Z,98887.44
2023-03-10T03:55:04.252Z,98878.81
2023-03-10T03:58:07.314Z,98871.00
2023-03-10T04:01:10.588Z,98869.25
2023-03-10T04:04:14.645Z,98858.03
2023-03-10T04:07:17.728Z,98854.56
2023-03-10T04:10:23.646Z,98852.00
2023-03-10T04:13:26.894Z,98849.38
2023-03-10T04:16:29.805Z,98841.56
2023-03-10T04:19:33.121Z,98848.47
2023-03-10T04:22:37.331Z,98838.91
2023-03-10T04:25:43.109Z,98835.53
2023-03-10T04:28:46.493Z,98838.94
2023-03-10T04:32:04.744Z,98835.47
2023-03-10T04:35:10.940Z,98837.09
2023-03-10T04:38:13.853Z,98824.06
2023-03-10T04:41:17.686Z,98815.41
2023-03-10T04:44:30.581Z,98809.25
2023-03-10T04:47:34.841Z,98815.75
2023-03-10T04:50:37.759Z,98815.62
2023-03-10T04:53:40.817Z,98813.41
2023-03-10T04:56:44.044Z,98810.56
2023-03-10T04:59:47.156Z,98826.03
2023-03-10T05:02:50.505Z,98813.41
2023-03-10T05:05:53.650Z,98820.84
2023-03-10T05:08:58.095Z,98813.09
2023-03-10T05:12:01.103Z,98808.62
2023-03-10T05:15:06.010Z,98810.94
2023-03-10T05:18:11.840Z,98802.25
2023-03-10T05:21:15.718Z,98792.88
2023-03-10T05:24:19.344Z,98792.59
2023-03-10T05:27:22.534Z,98782.22
2023-03-10T05:30:26.187Z,98787.47
2023-03-10T05:33:31.487Z,98781.63
2023-03-10T05:36:34.917Z,98775.03
2023-03-10T05:39:39.581Z,98777.72
2023-03-10T05:42:44.572Z,98770.97
2023-03-10T05:45:55.323Z,98776.31
2023-03-10T05:48:58.688Z,98773.87
2023-03-10T05:52:01.822Z,98765.81
2023-03-10T05:55:06.145Z,98775.38
2023-03-10T05:58:09.150Z,98768.06
2023-03-10T06:01:12.218Z,98760.38
2023-03-10T06:04:15.293Z,98761.34
2023-03-10T06:07:18.033Z,98760.53
2023-03-10T06:10:22.052Z,98761.41
2023-03-10T06:13:26.210Z,98753.75
2023-03-10T06:16:29.523Z,98755.88
2023-03-10T06:19:32.113Z,98760.31
2023-03-10T06:22:35.321Z,98753.47
2023-03-10T06:25:38.565Z,98761.38
2023-03-10T06:28:42.566Z,98758.84
2023-03-10T06:31:45.102Z,98766.87
2023-03-10T06:34:48.319Z,98756.72
2023-03-10T06:37:51.227Z,98747.94
2023-03-10T06:40:54.607Z,98752.31
2023-03-10T06:43:59.892Z,98753.38
2023-03-10T06:47:05.608Z,98750.97
2023-03-10T06:50:09.444Z,98759.03
2023-03-10T06:53:12.713Z,98753.16
2023-03-10T06:56:20.529Z,98749.00
2023-03-10T06:59:23.974Z,98745.75
2023-03-10T07:02:26.530Z,98734.69
2023-03-10T07:05:29.685Z,98732.28
2023-03-10T07:08:32.285Z,98738.56
2023-03-10T07:11:35.357Z,98729.22
2023-03-10T07:14:37.859Z,98727.69
2023-03-10T07:17:41.009Z,98728.75
2023-03-10T07:20:45.174Z,98725.50
2023-03-10T07:23:48.741Z,98736.97
2023-03-10T07:26:51.535Z,98735.37
2023-03-10T07:29:54.917Z,98727.69
2023-03-10T07:32:57.623Z,98724.41
2023-03-10T07:36:05.671Z,98727.16
2023-03-10T07:39:08.510Z,98727.28
2023-03-10T07:42:11.661Z,98728.19
2023-03-10T07:45:14.225Z,98732.59
2023-03-10T07:48:17.391Z,98721.28
2023-03-10T07:51:20.246Z,98722.91
2023-03-10T07:54:23.391Z,98719.19
2023-03-10T07:57:26.312Z,98708.44
2023-03-10T08:00:29.413Z,98706.66
2023-03-10T08:03:34.239Z,98703.88
2023-03-10T08:06:38.021Z,98688.34
2023-03-10T08:09:41.442Z,98680.84
2023-03-10T08:12:44.578Z,98672.53
2023-03-10T08:15:47.415Z,98676.63
2023-03-10T08:18:52.190Z,98673.38
2023-03-10T08:21:56.572Z,98666.66
2023-03-10T08:24:59.634Z,98655.56
2023-03-10T08:28:02.498Z,98646.19
2023-03-10T08:31:11.014Z,98640.72
2023-03-10T08:34:14.760Z,98630.63
2023-03-10T08:37:17.625Z,98620.19
2023-03-10T08:40:21.121Z,98640.56
2023-03-10T08:43:24.202Z,98624.25
2023-03-10T08:46:29.695Z,98617.94
2023-03-10T08:49:32.710Z,98615.25
2023-03-10T08:52:35.581Z,98608.13
2023-03-10T08:55:38.534Z,98611.41
2023-03-10T08:58:41.566Z,98608.28
2023-03-10T09:01:44.494Z,98598.91
2023-03-10T09:04:47.534Z,98592.00
2023-03-10T09:07:50.374Z,98598.03
2023-03-10T09:10:53.329Z,98599.69
2023-03-10T09:13:56.232Z,98598.84
2023-03-10T09:16:59.235Z,98593.88
2023-03-10T09:20:02.220Z,98595.22
2023-03-10T09:23:06.029Z,98595.62
2023-03-10T09:26:09.380Z,98596.88
2023-03-10T09:29:12.270Z,98593.72
2023-03-10T09:32:15.232Z,98590.22
2023-03-10T09:35:18.658Z,98596.63
2023-03-10T09:38:21.449Z,98591.97
2023-03-10T09:42:10.946Z,98581.91
2023-03-10T09:45:38.278Z,98569.22
2023-03-10T09:49:24.794Z,98562.16
2023-03-10T09:52:30.267Z,98553.91
2023-03-10T09:55:48.015Z,98550.47
2023-03-10T09:59:05.550Z,98539.81
2023-03-10T10:02:21.348Z,98537.59
2023-03-10T10:05:31.423Z,98540.59
2023-03-10T10:08:41.370Z,98529.69
2023-03-10T10:11:44.518Z,98529.13
2023-03-10T10:14:55.261Z,98514.75
2023-03-10T10:18:24.988Z,98512.69
2023-03-10T10:21:41.763Z,98501.22
2023-03-10T10:25:09.036Z,98491.91
2023-03-10T10:28:33.059Z,98493.25
2023-03-10T10:31:36.388Z,98479.81
2023-03-10T10:34:43.911Z,98468.63
2023-03-10T10:38:02.760Z,98465.94
2023-03-10T10:41:16.492Z,98463.47
2023-03-10T10:44:21.382Z,98464.22
2023-03-10T10:47:34.793Z,98458.41
2023-03-10T10:50:38.015Z,98459.53
2023-03-10T10:53:42.654Z,98452.97
2023-03-10T10:56:54.397Z,98453.87
2023-03-10T11:00:18.539Z,98446.37
2023-03-10T11:04:03.873Z,98442.94
2023-03-10T11:07:12.685Z,98440.13
2023-03-10T11:10:17.093Z,98435.03
2023-03-10T11:13:35.518Z,98422.94
2023-03-10T11:16:47.036Z,98409.66
2023-03-10T11:20:12.296Z,98403.13
2023-03-10T11:23:33.494Z,98400.37
2023-03-10T11:27:01.902Z,98391.53
2023-03-10T11:30:25.838Z,98397.56
2023-03-10T11:33:34.120Z,98388.69
2023-03-10T11:37:15.124Z,98379.06
2023-03-10T11:40:36.299Z,98377.53
2023-03-10T11:43:45.023Z,98353.94
2023-03-10T11:47:02.854Z,98350.03
2023-03-10T11:50:46.742Z,98346.22
2023-03-10T11:53:53.155Z,98328.12
2023-03-10T11:56:58.393Z,98325.53
2023-03-10T12:00:05.593Z,98311.34
2023-03-10T12:03:20.343Z,98302.78
2023-03-10T12:06:57.572Z,98307.19
2023-03-10T12:10:25.537Z,98292.03
2023-03-10T12:13:44.569Z,98296.41
2023-03-10T12:16:49.303Z,98294.47
2023-03-10T12:20:12.120Z,98281.84
2023-03-10T12:23:42.552Z,98272.66
2023-03-10T12:26:45.332Z,98278.66
2023-03-10T12:29:48.019Z,98256.06
2023-03-10T12:32:50.759Z,98250.34
2023-03-10T12:36:01.752Z,98244.78
2023-03-10T12:39:40.697Z,98234.84
2023-03-10T12:42:45.675Z,98230.47
2023-03-10T12:45:48.634Z,98221.84
2023-03-10T12:49:21.119Z,98219.34
2023-03-10T12:52:51.869Z,98222.00
2023-03-10T12:56:13.081Z,98212.72
2023-03-10T12:59:27.408Z,98202.13
2023-03-10T13:02:47.979Z,98202.19
2023-03-10T13:06:01.358Z,98196.25
2023-03-10T13:09:14.535Z,98182.50
2023-03-10T13:12:20.388Z,98169.22
2023-03-10T13:15:31.611Z,98173.66
2023-03-10T13:18:35.242Z,98172.97
2023-03-10T13:21:39.621Z,98170.56
2023-03-10T13:24:43.254Z,98166.66
2023-03-10T13:27:46.113Z,98172.09
2023-03-10T13:30:49.163Z,98179.41
2023-03-10T13:33:54.156Z,98161.78
2023-03-10T13:37:05.847Z,98160.56
2023-03-10T13:40:10.959Z,98153.56
2023-03-10T13:43:48.607Z,98152.09
2023-03-10T13:47:00.842Z,98154.53
2023-03-10T13:50:03.974Z,98149.06
2023-03-10T13:53:23.377Z,98148.06
2023-03-10T13:56:33.117Z,98129.28
2023-03-10T13:59:36.798Z,98130.25
2023-03-10T14:02:41.217Z,98131.19
2023-03-10T14:05:47.253Z,98131.06
2023-03-10T14:08:52.329Z,98134.09
2023-03-10T14:11:55.827Z,98137.47
2023-03-10T14:15:08.921Z,98136.59
2023-03-10T14:18:15.013Z,98133.97
2023-03-10T14:21:23.417Z,98133.13
2023-03-10T14:24:28.013Z,98128.44
2023-03-10T14:27:34.230Z,98122.47
2023-03-10T14:30:38.952Z,98131.63
2023-03-10T14:33:42.337Z,98128.28
2023-03-10T14:36:45.465Z,98127.66
2023-03-10T14:39:48.077Z,98118.66
2023-03-10T14:42:53.021Z,98112.78
2023-03-10T14:45:58.658Z,98113.56
2023-03-10T14:49:02.142Z,98113.75
2023-03-10T14:52:11.544Z,98103.50
2023-03-10T14:55:14.973Z,98107.28
2023-03-10T14:58:24.290Z,98092.47
2023-03-10T15:01:30.817Z,98093.50
2023-03-10T15:04:33.551Z,98082.06
2023-03-10T15:07:36.779Z,98080.44
2023-03-10T15:10:46.666Z,98079.69
2023-03-10T15:13:49.831Z,98083.06
2023-03-10T15:16:52.457Z,98077.09
2023-03-10T15:19:55.644Z,98077.41
2023-03-10T15:22:58.607Z,98079.16
2023-03-10T15:26:09.626Z,98070.53
2023-03-10T15:29:18.079Z,98074.41
2023-03-10T15:32:21.368Z,98079.06
2023-03-10T15:35:25.454Z,98078.38
2023-03-10T15:38:28.596Z,98080.03
2023-03-10T15:41:35.607Z,98083.62
2023-03-10T15:44:38.838Z,98076.62
2023-03-10T15:47:41.878Z,98073.22
2023-03-10T15:50:47.151Z,98076.84
2023-03-10T15:53:50.114Z,98086.34
2023-03-10T15:56:53.221Z,98080.44
2023-03-10T15:59:55.845Z,98082.91
2023-03-10T16:02:59.768Z,98069.75
2023-03-10T16:06:04.618Z,98067.28
2023-03-10T16:09:09.121Z,98066.69
2023-03-10T16:12:12.758Z,98064.13
2023-03-10T16:15:18.101Z,98058.97
2023-03-10T16:18:21.325Z,98063.44
2023-03-10T16:21:24.415Z,98065.25
2023-03-10T16:24:27.183Z,98063.59
2023-03-10T16:27:29.964Z,98073.06
2023-03-10T16:30:32.836Z,98073.19
2023-03-10T16:33:35.883Z,98073.19
2023-03-10T16:36:38.724Z,98068.88
2023-03-10T16:39:41.519Z,98080.16
2023-03-10T16:42:45.688Z,98088.87
2023-03-10T16:45:51.034Z,98082.84
2023-03-10T16:48:54.885Z,98083.91
2023-03-10T16:52:00.330Z,98082.94
2023-03-10T16:55:05.176Z,98089.97
2023-03-10T16:58:08.491Z,98084.09
2023-03-10T17:01:11.687Z,98100.56
2023-03-10T17:04:14.760Z,98089.31
2023-03-10T17:07:19.266Z,98092.75
2023-03-10T17:10:22.425Z,98093.69
2023-03-10T17:13:25.329Z,98115.44
2023-03-10T17:16:31.474Z,98115.69
2023-03-10T17:19:34.517Z,98109.63
2023-03-10T17:22:38.598Z,98114.12
2023-03-10T17:25:43.189Z,98118.47
2023-03-10T17:28:48.674Z,98120.34
2023-03-10T17:31:51.834Z,98123.91
2023-03-10T17:34:54.954Z,98107.97
2023-03-10T17:37:57.786Z,98122.06
2023-03-10T17:41:04.965Z,98117.63
2023-03-10T17:44:07.788Z,98116.88
2023-03-10T17:47:12.220Z,98108.84
2023-03-10T17:50:15.215Z,98095.84
2023-03-10T17:53:18.409Z,98115.22
2023-03-10T17:56:22.171Z,98109.88
2023-03-10T17:59:25.283Z,98111.66
2023-03-10T18:02:28.410Z,98110.91
2023-03-10T18:05:31.919Z,98116.19
2023-03-10T18:08:34.545Z,98111.00
2023-03-10T18:11:37.765Z,98110.06
2023-03-10T18:14:40.290Z,98103.03
2023-03-10T18:17:43.430Z,98101.38
2023-03-10T18:20:46.282Z,98100.56
2023-03-10T18:23:51.236Z,98107.53
2023-03-10T18:26:53.761Z,98118.87
2023-03-10T18:29:57.286Z,98142.47
2023-03-10T18:33:01.046Z,98154.66
2023-03-10T18:36:06.397Z,98151.88
2023-03-10T18:39:08.914Z,98143.16
2023-03-10T18:42:12.146Z,98147.59
2023-03-10T18:45:14.569Z,98150.06
2023-03-10T18:48:17.590Z,98151.88
2023-03-10T18:51:20.099Z,98161.59
2023-03-10T18:54:23.086Z,98150.19
2023-03-10T18:57:25.519Z,98155.63
2023-03-10T19:00:28.599Z,98146.91
2023-03-10T19:03:31.516Z,98144.16
2023-03-10T19:06:35.128Z,98151.28
2023-03-10T19:09:37.655Z,98146.16
2023-03-10T19:12:41.799Z,98150.47
2023-03-10T19:15:44.313Z,98160.12
2023-03-10T19:18:47.341Z,98156.78
2023-03-10T19:21:50.877Z,98159.50
2023-03-10T19:24:54.301Z,98153.41
2023-03-10T19:27:57.010Z,98160.34
2023-03-10T19:31:00.253Z,98159.50
2023-03-10T19:34:03.072Z,98160.34
2023-03-10T19:37:06.143Z,98153.44
2023-03-10T19:40:12.920Z,98145.59
2023-03-10T19:43:16.023Z,98139.44
2023-03-10T19:46:18.896Z,98118.72
2023-03-10T19:49:24.434Z,98120.53
2023-03-10T19:52:27.145Z,98120.56
2023-03-10T19:55:30.312Z,98123.22
2023-03-10T19:58:32.838Z,98130.22
2023-03-10T20:01:39.033Z,98133.75
2023-03-10T20:04:42.994Z,98135.53
2023-03-10T20:07:46.729Z,98145.09
2023-03-10T20:10:49.962Z,98141.59
2023-03-10T20:13:54.146Z,98141.59
2023-03-10T20:16:58.162Z,98132.78
2023-03-10T20:20:01.045Z,98135.47
2023-03-10T20:23:03.977Z,98134.50
2023-03-10T20:26:09.587Z,98132.72
2023-03-10T20:29:12.795Z,98126.66
2023-03-10T20:32:15.611Z,98117.22
2023-03-10T20:35:18.951Z,98121.66
2023-03-10T20:38:22.096Z,98101.66
2023-03-10T20:41:25.343Z,98093.91
2023-03-10T20:44:28.080Z,98080.87
2023-03-10T20:47:30.953Z,98084.34
2023-03-10T20:50:34.087Z,98066.97
2023-03-10T20:53:37.463Z,98055.69
2023-03-10T20:56:40.698Z,98046.16
2023-03-10T20:59:43.551Z,98040.94
2023-03-10T21:02:47.986Z,98046.12
2023-03-10T21:05:51.244Z,98066.94
2023-03-10T21:08:54.220Z,98068.69
2023-03-10T21:11:57.098Z,98060.81
2023-03-10T21:15:00.018Z,98062.56
2023-03-10T21:18:02.882Z,98072.16
2023-03-10T21:21:09.785Z,98085.25
2023-03-10T21:24:16.509Z,98088.75
2023-03-10T21:27:20.997Z,98087.84
2023-03-10T21:30:23.594Z,98082.63
2023-03-10T21:33:27.738Z,98090.44
2023-03-10T21:36:32.192Z,98082.59
2023-03-10T21:39:35.354Z,98086.94
2023-03-10T21:42:37.940Z,98094.78
2023-03-10T21:45:41.233Z,98099.97
2023-03-10T21:48:44.363Z,98101.75
2023-03-10T21:51:48.025Z,98105.25
2023-03-10T21:54:51.268Z,98108.72
2023-03-10T21:57:54.626Z,98106.13
2023-03-10T22:00:57.296Z,98107.88
2023-03-10T22:04:00.816Z,98106.13
2023-03-10T22:07:03.450Z,98105.25
2023-03-10T22:10:07.902Z,98107.91
2023-03-10T22:13:10.498Z,98107.03
2023-03-10T22:16:17.519Z,98110.50
2023-03-10T22:19:20.217Z,98104.38
2023-03-10T22:22:23.463Z,98107.03
2023-03-10T22:25:26.050Z,98112.25
2023-03-10T22:28:29.043Z,98110.50
2023-03-10T22:31:31.555Z,98107.03
2023-03-10T22:34:34.539Z,98101.75
2023-03-10T22:37:38.306Z,98099.12
2023-03-10T22:40:41.423Z,98092.16
2023-03-10T22:43:44.187Z,98086.09
2023-03-10T22:46:47.535Z,98089.56
2023-03-10T22:49:50.105Z,98094.81
2023-03-10T22:52:53.376Z,98088.69
2023-03-10T22:55:55.988Z,98093.06
2023-03-10T22:59:03.842Z,98100.03
2023-03-10T23:02:06.545Z,98095.66
2023-03-10T23:05:10.040Z,98102.66
2023-03-10T23:08:13.054Z,98106.13
2023-03-10T23:11:16.241Z,98109.59
2023-03-10T23:14:20.214Z,98113.97
2023-03-10T23:17:23.327Z,98118.34
2023-03-10T23:20:29.442Z,98101.75
2023-03-10T23:23:32.626Z,98108.78
2023-03-10T23:26:37.345Z,98120.09
2023-03-10T23:29:40.544Z,98120.09
2023-03-10T23:32:46.055Z,98133.16
2023-03-10T23:35:53.787Z,98116.63
2023-03-10T23:38:56.768Z,98117.53
2023-03-10T23:41:59.872Z,98123.63
2023-03-10T23:45:04.174Z,98120.16
2023-03-10T23:48:12.398Z,98120.16
2023-03-10T23:51:17.470Z,98129.72
2023-03-10T23:54:22.418Z,98129.72
2023-03-10T23:57:25.274Z,98136.72
